Oxford, KS

10:56 AM CDT on October 01, 2014 (GMT -0500)
McConnell Air Force Base | Change Station
CLOSE
Current Station
Airport
Location: McConnell AFB,
Elevation: 1371 ft
Nearby Weather Stations
4.1 Earthquake: Perry, Oklahoma (1 day ago)  

Elev 1371 ft 37.62 °N, 97.27 °W | Updated 58 minutes ago

Clear
Clear
73 °F
Feels Like 73 °F
N
18
Wind Variable Wind from SSE

Today
High -- | Low -- °F
--% Chance of Precip.
Yesterday
High -- | Low -- °F
Precip. -- in
7:24 AM 7:11 PM
Waxing Crescent, 48% visible
Pressure 29.87 in
Visibility 10.0 miles
Clouds Scattered Clouds 7500 ft
Dew Point 60 °F
Humidity 64%
Rainfall 0.00 in
Snow Depth Not available.
UV 2 out of 12
Pollen 1.80 out of 12
Air Quality Not available.
Flu Activity Not available.
METAR KIAB 301458Z AUTO 16016KT 10SM SCT075 23/16 A2989 RMK AO2 SLP113 T02280156 57004

More Conditions Fewer Conditions

Pressure 29.87 in
Visibility 10.0 miles
Clouds Scattered Clouds 7500 ft
Dew Point 60 °F
Humidity 64%
Rainfall 0.00 in
Snow Depth Not available.
UV 2 out of 12
Pollen 1.80 out of 12
Air Quality Not available.
Flu Activity Not available.
METAR KIAB 301458Z AUTO 16016KT 10SM SCT075 23/16 A2989 RMK AO2 SLP113 T02280156 57004

More Conditions Fewer Conditions

10-Day Weather Forecast

Almanac

Astronomy

Oct. 01, 2014 Rise Set
Actual Time 7:24 AM CDT 7:11 PM CDT
Civil Twilight 6:58 AM CDT 7:37 PM CDT
Nautical Twilight 6:27 AM CDT 8:07 PM CDT
Astronomical Twilight 5:57 AM CDT 8:38 PM CDT
Moon 2:20 PM CDT No Moon Set
Length of Visible Light 12h 39m
Length of Day
11h 47m
Tomorrow will be 2m 22s shorter.
Waxing Crescent, 48% of the Moon is Illuminated
Today
Waxing Crescent
Oct 1
First Quarter
Oct 8
Full
Oct 15
Last Quarter
Oct 23
New

Today's Extremes

State Highs State Lows

Community

WunderPhotos

Upload Photos

1,757,967 photos uploaded!

Nearby

Snow Depth

Station Depth Elevation
No new snow has been reported.

Earthquake Activity

City Distance Mag. Time & Date
Harper, Kansas 39 miles 3.3 1:11 AM CDT
2014-10-01
Medford, Oklahoma 48 miles 2.5 10:49 PM CDT
2014-09-30
Medford, Oklahoma 49 miles 2.8 8:30 PM CDT
2014-09-30
Parsons, Kansas 98 miles 3.0 7:33 PM CDT
2014-09-30
Minimum magnitude displayed is 2.5.

Coastal Water Temperatures

Place Temperature
No Stations Reporting

Nearby Weather Stations